Time;durP1;ratioP1;P1;durP2;ratioP2;P2;SDS_P1;SDS_P2;PMS_P1;PMS_P2;Temp;Humidity;BMP_temperature;BMP_pressure;BME280_temperature;BME280_humidity;BME280_pressure;Samples;Min_cycle;Max_cycle;Signal;HPM_P1;HPM_P2
2023/03/18 00:00:29;;;;;;;;;18.40;16.60;;;;;13.33;73.94;100269.81;4749213;29;45677;-60
2023/03/18 00:02:55;;;;;;;;;23.00;19.50;;;;;13.02;73.88;100225.03;4750668;29;46632;-59
2023/03/18 00:05:20;;;;;;;;;25.00;22.50;;;;;13.29;74.00;100276.91;4749626;29;45374;-60
2023/03/18 00:07:46;;;;;;;;;20.25;18.50;;;;;13.29;74.40;100274.97;4749637;29;45481;-60
2023/03/18 00:10:12;;;;;;;;;20.25;20.25;;;;;13.25;74.20;100273.75;4748427;29;45516;-62
2023/03/18 00:12:39;;;;;;;;;22.25;22.25;;;;;13.18;74.13;100278.56;4747134;29;45795;-60
2023/03/18 00:15:10;;;;;;;;;23.20;21.80;;;;;13.23;73.99;100275.09;4736036;29;45408;-61
2023/03/18 00:17:36;;;;;;;;;21.20;20.20;;;;;13.20;74.47;100276.41;4718782;29;45406;-61
2023/03/18 00:20:05;;;;;;;;;31.50;26.75;;;;;13.05;74.42;100251.25;4741975;29;45389;-61
2023/03/18 00:22:32;;;;;;;;;26.00;23.00;;;;;13.07;74.43;100266.47;4732867;30;46506;-60
2023/03/18 00:24:58;;;;;;;;;28.60;21.60;;;;;12.97;74.11;100247.78;4733972;29;45420;-60
2023/03/18 00:27:23;;;;;;;;;25.50;23.00;;;;;13.18;74.19;100278.56;4732746;30;45395;-61
2023/03/18 00:29:50;;;;;;;;;30.50;23.50;;;;;13.08;74.15;100279.16;4733096;30;45837;-61
2023/03/18 00:32:16;;;;;;;;;21.40;20.40;;;;;13.15;74.09;100296.41;4749613;29;46508;-61
2023/03/18 00:34:41;;;;;;;;;22.50;21.50;;;;;13.17;73.89;100298.09;4750695;29;45301;-60
2023/03/18 00:37:07;;;;;;;;;22.25;22.25;;;;;12.98;73.47;100273.44;4751998;29;45396;-61
2023/03/18 00:39:32;;;;;;;;;25.25;22.75;;;;;13.12;73.40;100302.41;4750994;29;45504;-60
2023/03/18 00:41:58;;;;;;;;;23.50;20.75;;;;;13.10;73.54;100310.09;4750246;29;45731;-60
2023/03/18 00:44:26;;;;;;;;;19.50;18.50;;;;;13.06;73.37;100299.75;4764856;29;46007;-61
2023/03/18 00:46:52;;;;;;;;;19.00;18.00;;;;;13.01;73.03;100298.59;4751837;29;45477;-60
2023/03/18 00:49:17;;;;;;;;;15.25;15.25;;;;;12.52;72.77;100204.31;4751471;29;45423;-60
2023/03/18 00:51:43;;;;;;;;;19.00;17.75;;;;;12.99;72.77;100288.88;4751827;29;45403;-61
2023/03/18 00:54:11;;;;;;;;;19.50;16.50;;;;;12.56;72.89;100216.53;4750458;29;45281;-60
2023/03/18 00:56:37;;;;;;;;;22.00;21.80;;;;;12.98;72.47;100284.44;4750388;29;45367;-61
2023/03/18 00:59:03;;;;;;;;;19.25;19.00;;;;;12.82;72.06;100258.47;4751823;29;45317;-60
2023/03/18 01:01:29;;;;;;;;;25.00;21.40;;;;;12.42;71.99;100191.16;4736150;29;47128;-62
2023/03/18 01:03:54;;;;;;;;;17.50;17.50;;;;;12.70;71.71;100252.94;4733906;29;45394;-61
2023/03/18 01:06:22;;;;;;;;;18.50;16.75;;;;;12.84;71.64;100279.19;4746402;29;45484;-61
2023/03/18 01:08:48;;;;;;;;;13.60;13.60;;;;;12.79;71.85;100278.19;4734300;30;45414;-61
2023/03/18 01:11:14;;;;;;;;;12.25;12.25;;;;;12.83;71.67;100280.25;4744050;29;46172;-60
2023/03/18 01:13:39;;;;;;;;;17.75;13.00;;;;;12.83;71.58;100296.78;4749765;29;46312;-61
2023/03/18 01:16:06;;;;;;;;;14.00;13.00;;;;;12.81;71.11;100278.81;4751334;29;45258;-61
2023/03/18 01:18:33;;;;;;;;;17.00;14.00;;;;;12.85;71.02;100285.50;4737644;29;45462;-60
2023/03/18 01:20:59;;;;;;;;;13.00;11.60;;;;;12.88;71.40;100285.88;4731860;29;45433;-61
2023/03/18 01:23:24;;;;;;;;;13.50;12.50;;;;;12.85;71.47;100283.59;4750759;29;45781;-61
2023/03/18 01:25:50;;;;;;;;;13.50;11.50;;;;;12.83;71.58;100277.50;4734949;29;45514;-60
2023/03/18 01:28:16;;;;;;;;;13.75;13.75;;;;;12.69;71.49;100259.50;4750954;29;45572;-60
2023/03/18 01:30:41;;;;;;;;;13.00;11.00;;;;;12.85;71.21;100271.72;4734659;29;48084;-61
2023/03/18 01:33:07;;;;;;;;;11.75;11.75;;;;;12.83;71.05;100274.75;4750875;29;45566;-61
2023/03/18 01:35:34;;;;;;;;;11.25;11.25;;;;;12.63;71.05;100249.47;4750849;29;45364;-60
2023/03/18 01:38:00;;;;;;;;;11.20;10.80;;;;;12.79;71.20;100270.78;4735341;29;46054;-60
2023/03/18 01:40:27;;;;;;;;;12.50;11.50;;;;;12.72;71.13;100256.28;4750959;29;45818;-60
2023/03/18 01:42:57;;;;;;;;;14.00;13.40;;;;;12.54;71.40;100224.22;4749379;29;45407;-60
2023/03/18 01:45:27;;;;;;;;;13.60;12.40;;;;;12.48;70.95;100217.72;4751009;29;45396;-60
2023/03/18 01:47:54;;;;;;;;;11.00;11.00;;;;;12.76;71.25;100260.25;4764560;29;45485;-60
2023/03/18 01:50:21;;;;;;;;;14.00;11.60;;;;;12.72;71.22;100251.59;4749834;29;45709;-61
2023/03/18 01:52:48;;;;;;;;;14.40;13.40;;;;;12.72;71.09;100250.78;4735010;29;45474;-61
2023/03/18 01:55:17;;;;;;;;;11.60;11.60;;;;;12.63;70.86;100243.97;4751240;29;45395;-61
2023/03/18 01:57:43;;;;;;;;;15.20;13.60;;;;;12.58;70.83;100241.91;4735366;29;45351;-61
2023/03/18 02:00:10;;;;;;;;;12.75;10.75;;;;;12.61;71.03;100249.72;4750960;29;45581;-60
2023/03/18 02:02:38;;;;;;;;;15.00;12.60;;;;;12.65;71.35;100258.31;4750956;29;45403;-59
2023/03/18 02:05:05;;;;;;;;;17.00;13.20;;;;;12.65;70.92;100252.81;4749604;29;45502;-60
2023/03/18 02:07:32;;;;;;;;;10.60;10.20;;;;;12.69;70.47;100254.84;4749990;29;45518;-60
2023/03/18 02:10:01;;;;;;;;;9.60;5.40;;;;;12.64;70.80;100254.72;4750592;29;46355;-61
2023/03/18 02:12:30;;;;;;;;;11.80;10.80;;;;;12.63;70.82;100254.97;4749190;29;45468;-60
2023/03/18 02:14:56;;;;;;;;;10.00;8.60;;;;;12.59;71.07;100235.31;4748898;29;45392;-60
2023/03/18 02:17:23;;;;;;;;;10.00;9.00;;;;;12.61;70.86;100252.47;4734694;29;45519;-61
2023/03/18 02:20:06;;;;;;;;;10.20;9.00;;;;;12.61;70.36;100260.72;4736913;29;46645;-61
2023/03/18 02:22:50;;;;;;;;;11.40;10.40;;;;;12.50;70.42;100253.28;4722784;29;45395;-61
2023/03/18 02:25:42;;;;;;;;;12.20;7.80;;;;;12.63;70.03;100272.31;4737504;29;45321;-61
2023/03/18 02:28:12;;;;;;;;;8.40;8.40;;;;;12.64;70.48;100262.16;4750857;29;45355;-61
2023/03/18 02:30:40;;;;;;;;;9.60;6.00;;;;;12.41;70.12;100220.59;4752112;29;46204;-61
2023/03/18 02:33:06;;;;;;;;;11.20;8.60;;;;;12.49;70.16;100227.66;4751830;29;45382;-61
2023/03/18 02:35:32;;;;;;;;;5.40;5.40;;;;;12.63;70.00;100244.78;4737554;29;45495;-61
2023/03/18 02:37:58;;;;;;;;;7.25;7.25;;;;;12.40;69.78;100209.81;4746434;29;45467;-61
2023/03/18 02:40:34;;;;;;;;;9.00;9.00;;;;;12.65;69.75;100252.81;4735474;30;46155;-61
2023/03/18 02:43:23;;;;;;;;;10.00;8.20;;;;;12.63;69.90;100263.25;4730362;29;45438;-61
2023/03/18 02:46:11;;;;;;;;;9.60;9.20;;;;;12.65;69.55;100269.34;4752071;29;45403;-59
2023/03/18 02:48:39;;;;;;;;;6.00;6.00;;;;;12.67;69.31;100275.44;4741767;29;45403;-60
2023/03/18 02:51:05;;;;;;;;;8.60;7.80;;;;;12.69;69.42;100276.88;4735140;29;45985;-60
2023/03/18 02:53:30;;;;;;;;;8.60;6.80;;;;;12.67;69.47;100272.69;4733453;29;45490;-61
2023/03/18 02:55:56;;;;;;;;;11.75;8.75;;;;;12.43;69.55;100236.88;4753225;29;45231;-61
2023/03/18 02:58:21;;;;;;;;;6.00;5.00;;;;;12.68;69.72;100271.59;4753123;29;45640;-60
2023/03/18 03:00:47;;;;;;;;;7.25;6.00;;;;;12.46;69.61;100234.50;4752886;29;46133;-61
2023/03/18 03:03:12;;;;;;;;;7.50;7.00;;;;;12.68;69.54;100275.22;4748760;29;45597;-61
2023/03/18 03:05:38;;;;;;;;;6.00;6.00;;;;;12.67;69.64;100275.44;4752853;29;45368;-59
2023/03/18 03:08:03;;;;;;;;;7.75;7.75;;;;;12.61;69.50;100272.56;4753321;29;45343;-60
2023/03/18 03:10:29;;;;;;;;;8.00;7.50;;;;;12.45;69.29;100252.06;4752546;29;45255;-60
2023/03/18 03:12:55;;;;;;;;;10.75;9.75;;;;;12.50;69.28;100265.13;4751219;29;45502;-60
2023/03/18 03:15:21;;;;;;;;;11.00;8.60;;;;;12.49;69.84;100276.38;4752596;29;45510;-60
2023/03/18 03:17:47;;;;;;;;;5.75;4.75;;;;;12.43;70.02;100278.16;4753031;29;45304;-61
2023/03/18 03:20:14;;;;;;;;;8.40;8.40;;;;;12.43;69.94;100283.66;4752911;29;45479;-60
2023/03/18 03:22:40;;;;;;;;;9.00;9.00;;;;;12.43;70.04;100281.75;4752897;29;45311;-60
2023/03/18 03:25:07;;;;;;;;;6.40;6.40;;;;;12.42;69.99;100273.72;4752810;29;45328;-60
2023/03/18 03:27:33;;;;;;;;;9.60;8.60;;;;;12.45;69.96;100273.25;4752716;29;45405;-60
2023/03/18 03:29:58;;;;;;;;;6.25;6.25;;;;;12.54;69.47;100285.59;4752290;29;46404;-59
2023/03/18 03:32:24;;;;;;;;;10.00;9.00;;;;;12.53;69.63;100289.41;4751002;29;45409;-61
2023/03/18 03:34:50;;;;;;;;;7.80;7.60;;;;;12.01;69.36;100199.19;4752465;29;45516;-60
2023/03/18 03:37:16;;;;;;;;;6.00;6.00;;;;;12.44;69.48;100263.31;4752697;29;45510;-60
2023/03/18 03:39:41;;;;;;;;;8.50;8.50;;;;;12.48;69.79;100283.78;4752288;29;46161;-60
2023/03/18 03:42:07;;;;;;;;;8.25;5.75;;;;;12.50;69.15;100289.91;4752284;29;45471;-60
2023/03/18 03:44:32;;;;;;;;;9.75;9.50;;;;;12.48;69.63;100286.53;4752138;29;45431;-61
2023/03/18 03:46:58;;;;;;;;;6.00;6.00;;;;;12.49;69.38;100287.38;4750961;29;45527;-60
2023/03/18 03:49:23;;;;;;;;;9.75;8.25;;;;;12.54;69.62;100293.84;4752188;29;46410;-60
2023/03/18 03:51:49;;;;;;;;;9.75;5.00;;;;;12.51;69.46;100296.22;4751954;29;45281;-60
2023/03/18 03:54:15;;;;;;;;;8.25;5.75;;;;;12.51;69.58;100291.59;4752256;29;45412;-60
2023/03/18 03:56:41;;;;;;;;;9.60;7.60;;;;;12.46;69.71;100289.53;4752207;29;45583;-61
2023/03/18 03:59:07;;;;;;;;;7.40;5.80;;;;;12.26;69.96;100255.97;4751860;29;47405;-61
2023/03/18 04:01:34;;;;;;;;;9.75;8.75;;;;;12.48;70.43;100289.28;4750782;29;45369;-60
2023/03/18 04:04:01;;;;;;;;;8.00;5.20;;;;;12.25;70.66;100259.78;4751919;29;45224;-61
2023/03/18 04:06:27;;;;;;;;;6.20;6.20;;;;;12.47;70.82;100304.13;4682765;29;45733;-60
2023/03/18 04:08:53;;;;;;;;;5.75;5.75;;;;;12.48;70.70;100292.03;4750082;29;46000;-61
2023/03/18 04:11:19;;;;;;;;;7.25;5.25;;;;;12.50;71.08;100289.91;4749866;29;45455;-60
2023/03/18 04:13:45;;;;;;;;;3.50;3.00;;;;;12.49;71.37;100295.63;4751533;29;45379;-60
2023/03/18 04:16:10;;;;;;;;;7.60;4.60;;;;;12.24;71.43;100252.63;4752429;29;45336;-60
2023/03/18 04:18:36;;;;;;;;;8.00;6.00;;;;;12.25;71.35;100255.13;4735597;29;47024;-61
2023/03/18 04:21:02;;;;;;;;;5.00;5.00;;;;;12.31;71.34;100264.34;4752116;29;45304;-60
2023/03/18 04:23:27;;;;;;;;;7.00;6.00;;;;;12.49;71.68;100290.97;4747679;29;45379;-60
2023/03/18 04:25:52;;;;;;;;;5.75;4.75;;;;;12.49;71.72;100301.97;4734270;30;45557;-59
2023/03/18 04:28:18;;;;;;;;;9.00;7.50;;;;;12.31;71.81;100278.97;4747891;29;46849;-62
2023/03/18 04:30:43;;;;;;;;;4.75;4.25;;;;;12.44;71.83;100299.94;4739083;29;45457;-60
2023/03/18 04:33:09;;;;;;;;;8.75;5.25;;;;;12.36;71.78;100280.16;4751814;29;45337;-60
2023/03/18 04:35:35;;;;;;;;;6.00;6.00;;;;;12.41;72.25;100294.91;4751966;29;45504;-60
2023/03/18 04:38:00;;;;;;;;;9.40;7.60;;;;;12.44;72.10;100294.41;4750112;29;46495;-60
2023/03/18 04:40:26;;;;;;;;;5.00;5.00;;;;;12.26;72.01;100277.97;4751172;29;45385;-60
2023/03/18 04:42:52;;;;;;;;;6.00;6.00;;;;;12.40;72.44;100303.38;4749587;29;45321;-60
2023/03/18 04:45:17;;;;;;;;;7.75;7.00;;;;;12.41;72.34;100308.66;4750141;29;45481;-61
2023/03/18 04:47:44;;;;;;;;;5.00;5.00;;;;;12.24;72.54;100277.38;4749944;29;47459;-60
2023/03/18 04:50:11;;;;;;;;;6.60;4.60;;;;;12.32;72.44;100294.41;4751304;29;45375;-61
2023/03/18 04:52:37;;;;;;;;;9.80;7.20;;;;;12.18;72.49;100288.25;4750364;29;45371;-61
2023/03/18 04:55:03;;;;;;;;;11.00;9.00;;;;;12.24;72.51;100303.00;4751334;29;45178;-62
2023/03/18 04:57:29;;;;;;;;;7.80;7.60;;;;;12.19;72.66;100306.44;4749961;29;46295;-60
2023/03/18 04:59:55;;;;;;;;;10.25;9.25;;;;;12.18;73.00;100317.69;4751190;29;45817;-60
2023/03/18 05:02:20;;;;;;;;;7.80;6.00;;;;;12.09;73.04;100300.66;4751363;29;45461;-61
2023/03/18 05:04:46;;;;;;;;;7.25;6.00;;;;;12.11;73.14;100301.25;4750169;29;45415;-61
2023/03/18 05:07:13;;;;;;;;;8.75;8.75;;;;;12.06;73.31;100293.72;4742826;29;45998;-61
2023/03/18 05:09:38;;;;;;;;;6.00;4.80;;;;;12.02;73.31;100286.94;4762655;29;45453;-61
2023/03/18 05:12:04;;;;;;;;;8.25;8.00;;;;;11.69;73.53;100238.75;4756723;29;45337;-61
2023/03/18 05:14:30;;;;;;;;;9.00;9.00;;;;;11.49;73.71;100201.38;4750002;29;45270;-61
2023/03/18 05:16:56;;;;;;;;;9.80;8.20;;;;;12.03;73.70;100285.06;4751064;29;46677;-61
2023/03/18 05:19:22;;;;;;;;;8.00;5.75;;;;;12.03;73.58;100282.31;4749957;29;45683;-61
2023/03/18 05:21:48;;;;;;;;;6.40;6.40;;;;;11.98;73.65;100288.50;4751597;29;45391;-61
2023/03/18 05:24:14;;;;;;;;;6.00;6.00;;;;;11.89;74.00;100278.88;4751194;29;45346;-61
2023/03/18 05:26:39;;;;;;;;;6.00;6.00;;;;;11.96;74.01;100287.06;4751191;29;46487;-61
2023/03/18 05:29:05;;;;;;;;;8.75;8.00;;;;;11.84;74.31;100276.00;4751070;29;45444;-61
2023/03/18 05:31:30;;;;;;;;;7.75;7.75;;;;;11.84;74.33;100292.50;4751213;29;45381;-61
2023/03/18 05:33:56;;;;;;;;;8.75;6.25;;;;;11.57;74.42;100244.19;4735056;29;45610;-61
2023/03/18 05:36:22;;;;;;;;;6.25;5.75;;;;;11.73;75.06;100286.72;4750882;29;46951;-61
2023/03/18 05:38:47;;;;;;;;;8.00;8.00;;;;;11.72;75.10;100285.03;4750966;29;45250;-60
2023/03/18 05:41:13;;;;;;;;;7.50;7.50;;;;;11.72;74.96;100282.28;4751208;29;45345;-61
2023/03/18 05:43:38;;;;;;;;;8.25;8.25;;;;;11.66;75.18;100277.72;4750943;29;45788;-61
2023/03/18 05:46:04;;;;;;;;;8.25;8.25;;;;;11.27;74.51;100216.66;4750811;29;45970;-62
2023/03/18 05:48:30;;;;;;;;;10.00;7.20;;;;;11.69;75.25;100304.72;4750944;29;45778;-60
2023/03/18 05:50:57;;;;;;;;;12.25;10.00;;;;;11.61;75.10;100281.16;4749825;29;45824;-60
2023/03/18 05:53:23;;;;;;;;;11.20;10.00;;;;;11.59;75.12;100286.03;4751026;29;45494;-60
2023/03/18 05:55:48;;;;;;;;;12.75;10.50;;;;;11.62;75.34;100288.31;4750886;29;46081;-60
2023/03/18 05:58:13;;;;;;;;;10.00;9.75;;;;;11.62;75.30;100279.22;4750862;29;45338;-61
2023/03/18 06:00:40;;;;;;;;;10.75;10.00;;;;;11.52;74.95;100275.13;4749650;29;45391;-61
2023/03/18 06:03:05;;;;;;;;;9.60;9.20;;;;;11.48;75.94;100281.31;4749540;29;45415;-61
2023/03/18 06:05:31;;;;;;;;;11.25;9.75;;;;;11.49;75.81;100291.22;4750430;29;46082;-61
2023/03/18 06:07:57;;;;;;;;;10.00;8.75;;;;;11.27;75.78;100255.13;4750667;29;45428;-61
2023/03/18 06:10:23;;;;;;;;;8.20;8.20;;;;;11.48;75.50;100295.06;4750873;29;45363;-60
2023/03/18 06:12:49;;;;;;;;;10.40;8.60;;;;;11.42;75.53;100288.53;4750662;29;45503;-60
2023/03/18 06:15:15;;;;;;;;;7.00;7.00;;;;;11.44;76.07;100296.56;4750419;29;45508;-61
2023/03/18 06:17:40;;;;;;;;;5.00;5.00;;;;;11.34;75.90;100275.97;4750416;29;45388;-61
2023/03/18 06:20:10;;;;;;;;;7.50;7.25;;;;;11.44;75.42;100293.81;4750751;29;45265;-61
2023/03/18 06:22:36;;;;;;;;;9.60;6.00;;;;;11.10;75.84;100244.75;4750736;29;45502;-61
2023/03/18 06:25:03;;;;;;;;;7.80;7.80;;;;;11.40;75.65;100285.19;4750458;29;45908;-61
2023/03/18 06:27:29;;;;;;;;;9.00;6.20;;;;;11.43;75.71;100287.50;4750157;29;45452;-61
2023/03/18 06:29:55;;;;;;;;;8.00;5.00;;;;;11.46;75.23;100289.78;4750820;29;45289;-61
2023/03/18 06:32:20;;;;;;;;;6.75;6.00;;;;;11.47;75.48;100288.72;4750882;29;45255;-61
2023/03/18 06:34:46;;;;;;;;;9.25;7.25;;;;;11.40;75.49;100276.94;4750120;29;45944;-60
2023/03/18 06:37:11;;;;;;;;;9.25;7.50;;;;;11.56;75.00;100304.88;4750533;29;45424;-62
2023/03/18 06:39:37;;;;;;;;;4.75;4.75;;;;;11.58;75.19;100305.50;4750744;29;45387;-61
2023/03/18 06:42:02;;;;;;;;;5.25;5.25;;;;;11.59;74.98;100313.50;4750745;29;45483;-61
2023/03/18 06:44:28;;;;;;;;;7.00;7.00;;;;;11.64;74.52;100310.09;4750413;29;45695;-61
2023/03/18 06:46:53;;;;;;;;;4.50;4.50;;;;;11.61;74.73;100305.03;4748576;29;45245;-61
2023/03/18 06:49:19;;;;;;;;;5.00;5.00;;;;;11.66;74.59;100316.19;4734550;29;45984;-61
2023/03/18 06:51:44;;;;;;;;;5.50;5.50;;;;;11.68;74.37;100310.47;4750157;29;45362;-61
2023/03/18 06:54:10;;;;;;;;;5.75;5.75;;;;;11.69;74.08;100315.72;4750046;29;47189;-61
2023/03/18 06:56:37;;;;;;;;;7.75;6.00;;;;;11.69;74.33;100307.47;4733655;29;45478;-60
2023/03/18 06:59:04;;;;;;;;;4.00;4.00;;;;;11.71;73.80;100308.09;4748997;29;45388;-60
2023/03/18 07:01:31;;;;;;;;;4.00;4.00;;;;;11.69;73.89;100306.66;4750824;29;45887;-61
2023/03/18 07:03:57;;;;;;;;;3.40;3.40;;;;;11.74;73.72;100318.63;4749120;29;45924;-61
2023/03/18 07:06:23;;;;;;;;;3.60;3.60;;;;;11.82;73.65;100322.13;4752118;29;45314;-60
2023/03/18 07:08:49;;;;;;;;;4.25;4.25;;;;;11.81;73.68;100321.31;4751951;29;45402;-61
2023/03/18 07:11:15;;;;;;;;;3.80;3.80;;;;;11.73;73.29;100305.94;4753604;29;45260;-61
2023/03/18 07:13:41;;;;;;;;;3.00;3.00;;;;;11.76;73.43;100311.00;4752502;29;45532;-59
2023/03/18 07:16:06;;;;;;;;;3.25;3.25;;;;;11.94;72.96;100320.28;4752554;29;45413;-61
2023/03/18 07:18:34;;;;;;;;;6.00;6.00;;;;;11.78;73.26;100292.34;4751534;29;45361;-60
2023/03/18 07:21:00;;;;;;;;;5.80;4.20;;;;;11.97;73.58;100318.97;4753022;29;45467;-61
2023/03/18 07:23:26;;;;;;;;;2.75;2.75;;;;;11.93;73.04;100322.22;4751424;29;46178;-62
2023/03/18 07:25:52;;;;;;;;;1.80;1.80;;;;;11.95;72.94;100321.97;4751125;29;45369;-61
2023/03/18 07:28:17;;;;;;;;;7.75;4.00;;;;;11.90;73.04;100327.34;4752766;29;45404;-60
2023/03/18 07:30:43;;;;;;;;;3.00;1.00;;;;;11.90;73.55;100319.91;4753129;29;45330;-61
2023/03/18 07:33:09;;;;;;;;;2.40;2.40;;;;;11.92;72.98;100331.50;4752359;29;46305;-60
2023/03/18 07:35:35;;;;;;;;;3.50;3.50;;;;;11.75;73.10;100317.53;4752766;29;45390;-61
2023/03/18 07:38:01;;;;;;;;;4.80;3.80;;;;;11.68;72.81;100300.28;4751527;29;45428;-61
2023/03/18 07:40:26;;;;;;;;;5.00;3.50;;;;;11.87;73.10;100333.28;4751474;29;45433;-61
2023/03/18 07:42:55;;;;;;;;;2.75;2.75;;;;;11.88;72.78;100323.94;4752079;29;45530;-61
2023/03/18 07:45:20;;;;;;;;;2.80;2.80;;;;;11.88;73.04;100334.97;4719082;29;45488;-61
2023/03/18 07:47:46;;;;;;;;;3.50;1.75;;;;;11.84;72.72;100326.31;4752541;29;45352;-61
2023/03/18 07:50:12;;;;;;;;;3.75;3.75;;;;;11.91;72.79;100337.25;4751278;29;45434;-60
2023/03/18 07:52:37;;;;;;;;;3.00;2.60;;;;;11.77;72.67;100309.94;4752375;29;45440;-60
2023/03/18 07:55:03;;;;;;;;;5.25;3.75;;;;;11.92;72.40;100326.00;4750863;29;45375;-59
2023/03/18 07:57:29;;;;;;;;;3.50;2.25;;;;;11.98;72.75;100328.91;4752297;29;45331;-60
2023/03/18 07:59:55;;;;;;;;;3.00;3.00;;;;;11.97;72.47;100321.72;4740823;29;45415;-60
2023/03/18 08:02:20;;;;;;;;;3.75;3.75;;;;;11.79;72.59;100298.69;4743415;29;46489;-59
2023/03/18 08:04:46;;;;;;;;;4.75;4.75;;;;;11.85;72.92;100296.94;4743309;29;45456;-57
2023/03/18 08:07:12;;;;;;;;;4.25;4.25;;;;;12.05;72.73;100333.28;4741692;29;45423;-62
2023/03/18 08:09:37;;;;;;;;;5.00;3.25;;;;;12.03;72.90;100327.19;4724528;29;45745;-61
2023/03/18 08:12:03;;;;;;;;;3.25;2.75;;;;;11.79;72.71;100285.78;4747058;29;46606;-59
2023/03/18 08:14:30;;;;;;;;;4.25;3.00;;;;;11.90;73.06;100314.41;4747404;29;45651;-60
2023/03/18 08:16:56;;;;;;;;;4.00;4.00;;;;;12.11;72.91;100345.28;4752819;29;45497;-58
2023/03/18 08:19:21;;;;;;;;;3.20;3.20;;;;;12.15;72.66;100342.88;4750192;29;45487;-60
2023/03/18 08:21:48;;;;;;;;;2.00;2.00;;;;;12.11;72.74;100337.00;4749887;29;45686;-60
2023/03/18 08:24:15;;;;;;;;;3.40;3.40;;;;;12.21;73.06;100350.22;4749015;29;45647;-59
2023/03/18 08:26:40;;;;;;;;;2.20;2.20;;;;;12.28;72.86;100350.97;4751689;29;45363;-61
2023/03/18 08:29:06;;;;;;;;;3.00;3.00;;;;;12.33;72.46;100350.28;4750633;29;45492;-60
2023/03/18 08:31:32;;;;;;;;;4.00;4.00;;;;;12.38;72.52;100352.34;4732769;29;45564;-61
2023/03/18 08:33:58;;;;;;;;;3.00;2.00;;;;;12.36;72.32;100352.56;4749541;29;45471;-61
2023/03/18 08:36:24;;;;;;;;;3.60;3.20;;;;;12.36;72.34;100346.19;4748629;29;45739;-62
2023/03/18 08:38:49;;;;;;;;;2.25;2.25;;;;;12.36;72.14;100349.81;4749921;29;45372;-60
2023/03/18 08:41:15;;;;;;;;;2.00;2.00;;;;;12.37;72.41;100350.66;4747395;29;46653;-61
2023/03/18 08:43:42;;;;;;;;;3.00;2.20;;;;;12.32;72.08;100338.44;4747277;29;45677;-60
2023/03/18 08:46:07;;;;;;;;;2.00;2.00;;;;;12.39;71.84;100348.50;4745373;29;45809;-61
2023/03/18 08:48:33;;;;;;;;;3.25;3.00;;;;;12.37;72.37;100339.66;4766403;29;45402;-61
2023/03/18 08:51:02;;;;;;;;;3.40;3.40;;;;;12.05;71.82;100280.19;4765731;29;47501;-61
2023/03/18 08:53:27;;;;;;;;;3.60;3.60;;;;;12.25;71.65;100301.91;4762079;29;45485;-62
2023/03/18 08:55:53;;;;;;;;;5.25;4.00;;;;;12.50;71.55;100341.34;4752221;29;45537;-63
2023/03/18 08:58:18;;;;;;;;;8.25;8.25;;;;;12.57;71.30;100342.09;4768947;29;45431;-62
2023/03/18 09:00:44;;;;;;;;;7.00;4.00;;;;;12.64;71.42;100344.75;4768505;29;45745;-62
2023/03/18 09:03:09;;;;;;;;;4.00;4.00;;;;;12.65;71.30;100344.50;4768535;29;45293;-62
2023/03/18 09:05:35;;;;;;;;;8.75;5.75;;;;;12.68;70.90;100334.94;4739382;29;45488;-62
2023/03/18 09:08:00;;;;;;;;;5.75;5.75;;;;;12.71;71.02;100334.47;4767133;29;45681;-62
2023/03/18 09:10:26;;;;;;;;;6.75;5.50;;;;;12.78;70.51;100340.72;4748973;29;45862;-60
2023/03/18 09:12:51;;;;;;;;;7.75;7.75;;;;;12.78;70.75;100335.19;4744066;29;45603;-61
2023/03/18 09:15:19;;;;;;;;;6.00;6.00;;;;;12.79;70.63;100336.88;4750557;29;45776;-61
2023/03/18 09:17:45;;;;;;;;;11.40;10.00;;;;;12.87;70.31;100343.97;4753055;29;45432;-61
2023/03/18 09:20:12;;;;;;;;;7.80;5.20;;;;;12.92;69.66;100334.97;4734023;29;47555;-61
2023/03/18 09:22:39;;;;;;;;;8.60;6.20;;;;;12.91;69.64;100328.63;4745952;29;45403;-62
2023/03/18 09:25:05;;;;;;;;;7.80;7.40;;;;;12.74;70.10;100303.69;4739721;29;45364;-62
2023/03/18 09:27:31;;;;;;;;;8.60;6.60;;;;;13.02;69.26;100340.72;4730835;30;45488;-62
2023/03/18 09:29:56;;;;;;;;;9.50;9.50;;;;;13.10;69.43;100347.81;4739144;29;46012;-63
2023/03/18 09:32:22;;;;;;;;;7.25;6.75;;;;;13.15;69.11;100337.75;4750342;29;45408;-63
2023/03/18 09:34:47;;;;;;;;;9.75;9.75;;;;;13.23;69.04;100332.97;4748845;29;45359;-62
2023/03/18 09:37:13;;;;;;;;;5.50;5.50;;;;;13.29;68.92;100334.78;4749209;29;45790;-63
2023/03/18 09:39:40;;;;;;;;;5.00;5.00;;;;;13.32;68.98;100323.25;4750081;29;45980;-64
2023/03/18 09:42:14;;;;;;;;;4.00;4.00;;;;;13.40;68.29;100333.91;4732664;29;45447;-63
2023/03/18 09:44:40;;;;;;;;;5.60;4.80;;;;;13.42;67.99;100326.25;4749649;29;45339;-63
2023/03/18 09:47:20;;;;;;;;;5.50;3.25;;;;;13.47;67.46;100317.28;4733764;29;45554;-63
2023/03/18 09:50:11;;;;;;;;;3.00;3.00;;;;;13.62;67.44;100327.81;4748543;29;45791;-63
2023/03/18 09:52:42;;;;;;;;;2.00;2.00;;;;;13.71;67.14;100319.16;4750081;29;45482;-62
2023/03/18 09:55:13;;;;;;;;;4.00;4.00;;;;;13.83;66.57;100336.53;4747335;29;45307;-62
2023/03/18 09:57:41;;;;;;;;;4.20;3.00;;;;;13.74;66.18;100302.13;4749982;29;45479;-62
2023/03/18 10:00:27;;;;;;;;;3.80;2.00;;;;;14.06;66.10;100332.84;4725616;29;45448;-62
2023/03/18 10:03:08;;;;;;;;;2.80;1.00;;;;;14.18;64.93;100332.81;4744157;29;45437;-61
2023/03/18 10:05:39;;;;;;;;;2.00;2.00;;;;;14.33;64.95;100343.31;4748850;29;47008;-61
2023/03/18 10:08:22;;;;;;;;;2.40;2.40;;;;;14.32;64.45;100333.34;4719631;29;45423;-62
2023/03/18 10:10:48;;;;;;;;;3.40;2.60;;;;;14.46;63.96;100313.72;4740182;29;46014;-62
2023/03/18 10:13:20;;;;;;;;;3.25;2.00;;;;;14.64;63.47;100338.31;4748233;29;45372;-61
2023/03/18 10:15:52;;;;;;;;;2.00;2.00;;;;;14.84;63.24;100334.25;4732204;29;45830;-61
2023/03/18 10:18:25;;;;;;;;;3.80;1.40;;;;;14.89;63.02;100339.06;4747037;29;45646;-61
2023/03/18 10:20:52;;;;;;;;;2.20;2.20;;;;;14.97;62.53;100330.34;4746543;29;45456;-62
2023/03/18 10:23:26;;;;;;;;;5.00;4.00;;;;;14.94;61.60;100330.03;4731527;29;45830;-62
2023/03/18 10:25:53;;;;;;;;;2.00;2.00;;;;;15.09;60.90;100338.53;4746917;29;45531;-59
2023/03/18 10:28:34;;;;;;;;;1.20;1.20;;;;;15.21;59.76;100340.38;4746679;29;45504;-62
2023/03/18 10:31:02;;;;;;;;;1.60;1.60;;;;;15.35;59.98;100335.31;4746863;29;45369;-61
2023/03/18 10:33:45;;;;;;;;;2.20;2.00;;;;;15.31;59.78;100338.59;4746606;29;45452;-61
2023/03/18 10:36:17;;;;;;;;;1.60;1.60;;;;;15.41;60.39;100346.22;4745699;29;45414;-60
2023/03/18 10:38:45;;;;;;;;;3.00;3.00;;;;;15.53;59.67;100343.34;4762775;29;45411;-62
2023/03/18 10:41:35;;;;;;;;;5.00;1.80;;;;;15.65;59.32;100343.25;4752976;29;46608;-61
2023/03/18 10:44:11;;;;;;;;;3.80;3.00;;;;;15.53;59.18;100315.69;4754522;29;45853;-62
2023/03/18 10:46:37;;;;;;;;;1.60;1.00;;;;;15.58;58.14;100307.44;4749434;29;45447;-62
2023/03/18 10:49:18;;;;;;;;;1.60;1.60;;;;;15.70;57.02;100321.16;4748803;29;45530;-62
2023/03/18 10:51:56;;;;;;;;;2.80;2.00;;;;;15.74;56.80;100338.06;4749509;29;46443;-61
2023/03/18 10:54:42;;;;;;;;;1.80;1.80;;;;;15.72;57.02;100318.13;4748128;29;45468;-61
2023/03/18 10:57:15;;;;;;;;;2.00;2.00;;;;;15.89;56.56;100334.69;4749455;29;45487;-62
2023/03/18 10:59:44;;;;;;;;;1.00;1.00;;;;;15.99;56.24;100339.53;4751037;29;45664;-61
2023/03/18 11:02:32;;;;;;;;;3.60;3.60;;;;;16.02;56.02;100322.41;4749387;29;46322;-62
2023/03/18 11:05:28;;;;;;;;;5.00;1.60;;;;;16.11;55.62;100328.31;4748703;29;45583;-60
2023/03/18 11:08:05;;;;;;;;;2.80;2.80;;;;;16.15;55.30;100335.00;4746378;29;45518;-61
2023/03/18 11:10:33;;;;;;;;;2.60;2.60;;;;;16.06;55.06;100345.69;4749987;29;45440;-62
2023/03/18 11:13:01;;;;;;;;;2.00;2.00;;;;;15.76;55.08;100297.19;4713072;29;46341;-62
2023/03/18 11:15:27;;;;;;;;;1.80;1.80;;;;;16.18;54.75;100347.50;4741963;29;45472;-61
2023/03/18 11:17:53;;;;;;;;;2.80;2.00;;;;;16.36;54.82;100338.00;4761293;29;45586;-60
2023/03/18 11:20:24;;;;;;;;;2.25;2.25;;;;;16.36;54.49;100343.53;4734966;29;45922;-59
2023/03/18 11:22:55;;;;;;;;;2.00;2.00;;;;;16.47;54.30;100344.47;4750120;29;46226;-61